Terminal Aerodrome Forecast
Issued by NWS Bismarck, ND

Home | Current Version | Previous Version | Text Only | Print | Product List | Glossary Off
Versions: 1 2 3 4 5 6 7 8 9 10 11 12 13

459
FTUS43 KBIS 091605 AAA
TAFISN
TAF AMD
KISN 091605Z 0916/1012 36010KT P6SM OVC050
     FM091800 VRB05KT P6SM VCSH OVC030
     FM092300 VRB03KT P6SM OVC025
     FM100700 21005KT P6SM OVC050
     FM101100 28006KT P6SM BKN080=

USA.gov is the U.S. government's official web portal to all federal, state and local government web resources and services.